Terminal Aerodrome Forecast
Issued by NWS Springfield, MO

Home | Current Version | Previous Version | Text Only | Print | Product List | Glossary On
Versions: 1 2 3 4 5 6 7 8 9 10 11 12 13 14
799
FTUS43 KSGF 210520
TAFSGF
TAF
KSGF 210520Z 2106/2206 15019G27KT P6SM SCT250 WS020/18040KT
     FM211600 18015G27KT P6SM BKN050
     FM220300 17015G23KT P6SM OVC050
      TEMPO 2205/2206 3SM TSRA OVC025CB=

USA.gov is the U.S. government's official web portal to all federal, state and local government web resources and services.